sensor_id;sensor_type;location;lat;lon;timestamp;pressure;altitude;pressure_sealevel;temperature;humidity
54910;BME280;63189;51.240;9.964;2023-02-12T00:02:16;99780.47;;;5.44;100.00
54910;BME280;63189;51.240;9.964;2023-02-12T00:04:41;99761.31;;;5.35;100.00
54910;BME280;63189;51.240;9.964;2023-02-12T00:07:07;99782.97;;;5.41;100.00
54910;BME280;63189;51.240;9.964;2023-02-12T00:09:32;99767.38;;;5.37;100.00
54910;BME280;63189;51.240;9.964;2023-02-12T00:11:57;99755.97;;;5.27;100.00
54910;BME280;63189;51.240;9.964;2023-02-12T00:14:23;99777.75;;;5.38;100.00
54910;BME280;63189;51.240;9.964;2023-02-12T00:16:48;99741.16;;;5.18;100.00
54910;BME280;63189;51.240;9.964;2023-02-12T00:19:13;99765.47;;;5.28;100.00
54910;BME280;63189;51.240;9.964;2023-02-12T00:21:39;99789.06;;;5.43;100.00
54910;BME280;63189;51.240;9.964;2023-02-12T00:24:04;99749.75;;;5.17;100.00
54910;BME280;63189;51.240;9.964;2023-02-12T00:26:29;99805.44;;;5.42;100.00
54910;BME280;63189;51.240;9.964;2023-02-12T00:28:55;99747.97;;;5.13;100.00
54910;BME280;63189;51.240;9.964;2023-02-12T00:31:23;99819.31;;;5.47;100.00
54910;BME280;63189;51.240;9.964;2023-02-12T00:33:49;99803.75;;;5.44;100.00
54910;BME280;63189;51.240;9.964;2023-02-12T00:36:17;99808.09;;;5.47;100.00
54910;BME280;63189;51.240;9.964;2023-02-12T00:38:43;99782.72;;;5.28;100.00
54910;BME280;63189;51.240;9.964;2023-02-12T00:41:09;99805.50;;;5.45;100.00
54910;BME280;63189;51.240;9.964;2023-02-12T00:43:35;99810.63;;;5.44;100.00
54910;BME280;63189;51.240;9.964;2023-02-12T00:46:01;99746.19;;;5.11;100.00
54910;BME280;63189;51.240;9.964;2023-02-12T00:48:26;99814.94;;;5.43;100.00
54910;BME280;63189;51.240;9.964;2023-02-12T00:50:51;99798.41;;;5.37;100.00
54910;BME280;63189;51.240;9.964;2023-02-12T00:53:17;99774.78;;;5.20;100.00
54910;BME280;63189;51.240;9.964;2023-02-12T00:55:43;99811.41;;;5.41;100.00
54910;BME280;63189;51.240;9.964;2023-02-12T00:58:09;99774.03;;;5.24;100.00
54910;BME280;63189;51.240;9.964;2023-02-12T01:00:35;99809.75;;;5.43;100.00
54910;BME280;63189;51.240;9.964;2023-02-12T01:03:00;99810.56;;;5.41;100.00
54910;BME280;63189;51.240;9.964;2023-02-12T01:05:25;99812.28;;;5.40;100.00
54910;BME280;63189;51.240;9.964;2023-02-12T01:07:52;99801.91;;;5.40;100.00
54910;BME280;63189;51.240;9.964;2023-02-12T01:10:18;99796.75;;;5.40;100.00
54910;BME280;63189;51.240;9.964;2023-02-12T01:12:45;99805.50;;;5.45;100.00
54910;BME280;63189;51.240;9.964;2023-02-12T01:15:11;99796.84;;;5.43;100.00
54910;BME280;63189;51.240;9.964;2023-02-12T01:17:36;99798.53;;;5.43;100.00
54910;BME280;63189;51.240;9.964;2023-02-12T01:20:03;99801.06;;;5.40;100.00
54910;BME280;63189;51.240;9.964;2023-02-12T01:22:30;99805.50;;;5.45;100.00
54910;BME280;63189;51.240;9.964;2023-02-12T01:24:55;99787.16;;;5.35;100.00
54910;BME280;63189;51.240;9.964;2023-02-12T01:27:20;99778.38;;;5.27;100.00
54910;BME280;63189;51.240;9.964;2023-02-12T01:29:46;99755.78;;;5.16;100.00
54910;BME280;63189;51.240;9.964;2023-02-12T01:32:11;99802.06;;;5.46;100.00
54910;BME280;63189;51.240;9.964;2023-02-12T01:34:37;99767.16;;;5.26;100.00
54910;BME280;63189;51.240;9.964;2023-02-12T01:37:02;99806.38;;;5.47;100.00
54910;BME280;63189;51.240;9.964;2023-02-12T01:39:28;99802.06;;;5.46;100.00
54910;BME280;63189;51.240;9.964;2023-02-12T01:41:54;99782.72;;;5.29;100.00
54910;BME280;63189;51.240;9.964;2023-02-12T01:44:22;99798.63;;;5.47;100.00
54910;BME280;63189;51.240;9.964;2023-02-12T01:46:59;99805.53;;;5.48;100.00
54910;BME280;63189;51.240;9.964;2023-02-12T01:49:29;99791.66;;;5.43;100.00
54910;BME280;63189;51.240;9.964;2023-02-12T01:52:14;99742.81;;;5.15;100.00
54910;BME280;63189;51.240;9.964;2023-02-12T01:54:41;99763.72;;;5.26;100.00
54910;BME280;63189;51.240;9.964;2023-02-12T01:57:08;99796.06;;;5.49;100.00
54910;BME280;63189;51.240;9.964;2023-02-12T01:59:35;99804.66;;;5.48;100.00
54910;BME280;63189;51.240;9.964;2023-02-12T02:02:02;99756.69;;;5.20;100.00
54910;BME280;63189;51.240;9.964;2023-02-12T02:04:32;99773.25;;;5.30;100.00
54910;BME280;63189;51.240;9.964;2023-02-12T02:07:02;99798.59;;;5.46;100.00
54910;BME280;63189;51.240;9.964;2023-02-12T02:09:30;99799.41;;;5.42;100.00
54910;BME280;63189;51.240;9.964;2023-02-12T02:11:57;99741.06;;;5.14;100.00
54910;BME280;63189;51.240;9.964;2023-02-12T02:14:41;99812.41;;;5.46;100.00
54910;BME280;63189;51.240;9.964;2023-02-12T02:22:30;99801.19;;;5.46;100.00
54910;BME280;63189;51.240;9.964;2023-02-12T02:25:38;99796.69;;;5.37;100.00
54910;BME280;63189;51.240;9.964;2023-02-12T02:31:19;99803.75;;;5.44;100.00
54910;BME280;63189;51.240;9.964;2023-02-12T02:33:59;99811.47;;;5.43;100.00
54910;BME280;63189;51.240;9.964;2023-02-12T02:36:36;99768.00;;;5.25;100.00
54910;BME280;63189;51.240;9.964;2023-02-12T02:39:25;99774.03;;;5.24;100.00
54910;BME280;63189;51.240;9.964;2023-02-12T02:45:03;99779.41;;;5.35;100.00
54910;BME280;63189;51.240;9.964;2023-02-12T02:47:33;99771.53;;;5.29;100.00
54910;BME280;63189;51.240;9.964;2023-02-12T02:50:03;99736.59;;;5.07;100.00
54910;BME280;63189;51.240;9.964;2023-02-12T02:52:38;99775.00;;;5.31;100.00
54910;BME280;63189;51.240;9.964;2023-02-12T02:55:07;99787.16;;;5.35;100.00
54910;BME280;63189;51.240;9.964;2023-02-12T02:58:28;99758.47;;;5.21;100.00
54910;BME280;63189;51.240;9.964;2023-02-12T03:00:54;99786.34;;;5.37;100.00
54910;BME280;63189;51.240;9.964;2023-02-12T03:03:27;99777.66;;;5.32;100.00
54910;BME280;63189;51.240;9.964;2023-02-12T03:06:01;99788.91;;;5.36;100.00
54910;BME280;63189;51.240;9.964;2023-02-12T03:08:29;99795.81;;;5.35;100.00
54910;BME280;63189;51.240;9.964;2023-02-12T03:11:05;99742.69;;;5.10;100.00
54910;BME280;63189;51.240;9.964;2023-02-12T03:13:46;99788.00;;;5.32;100.00
54910;BME280;63189;51.240;9.964;2023-02-12T03:16:22;99755.69;;;5.12;100.00
54910;BME280;63189;51.240;9.964;2023-02-12T03:19:08;99773.06;;;5.20;100.00
54910;BME280;63189;51.240;9.964;2023-02-12T03:21:40;99776.63;;;5.24;100.00
54910;BME280;63189;51.240;9.964;2023-02-12T03:24:17;99778.47;;;5.31;100.00
54910;BME280;63189;51.240;9.964;2023-02-12T03:26:48;99781.81;;;5.26;100.00
54910;BME280;63189;51.240;9.964;2023-02-12T03:29:15;99785.31;;;5.29;100.00
54910;BME280;63189;51.240;9.964;2023-02-12T03:31:55;99773.22;;;5.27;100.00
54910;BME280;63189;51.240;9.964;2023-02-12T03:37:12;99782.69;;;5.26;100.00
54910;BME280;63189;51.240;9.964;2023-02-12T03:43:32;99778.22;;;5.19;100.00
54910;BME280;63189;51.240;9.964;2023-02-12T03:48:21;99786.09;;;5.24;100.00
54910;BME280;63189;51.240;9.964;2023-02-12T03:53:25;99774.75;;;5.18;100.00
54910;BME280;63189;51.240;9.964;2023-02-12T03:55:55;99793.06;;;5.29;100.00
54910;BME280;63189;51.240;9.964;2023-02-12T03:58:25;99763.31;;;5.06;100.00
54910;BME280;63189;51.240;9.964;2023-02-12T04:00:52;99760.81;;;5.10;100.00
54910;BME280;63189;51.240;9.964;2023-02-12T04:03:17;99758.19;;;5.09;100.00
54910;BME280;63189;51.240;9.964;2023-02-12T04:05:43;99771.28;;;5.16;100.00
54910;BME280;63189;51.240;9.964;2023-02-12T04:08:10;99745.03;;;4.97;100.00
54910;BME280;63189;51.240;9.964;2023-02-12T04:10:51;99796.50;;;5.28;100.00
54910;BME280;63189;51.240;9.964;2023-02-12T04:13:41;99787.78;;;5.21;100.00
54910;BME280;63189;51.240;9.964;2023-02-12T04:16:33;99808.59;;;5.29;100.00
54910;BME280;63189;51.240;9.964;2023-02-12T04:18:59;99809.44;;;5.28;100.00
54910;BME280;63189;51.240;9.964;2023-02-12T04:27:49;99817.34;;;5.34;100.00
54910;BME280;63189;51.240;9.964;2023-02-12T04:32:27;99826.81;;;5.34;100.00
54910;BME280;63189;51.240;9.964;2023-02-12T04:35:01;99793.75;;;5.20;100.00
54910;BME280;63189;51.240;9.964;2023-02-12T04:37:42;99799.03;;;5.24;100.00
54910;BME280;63189;51.240;9.964;2023-02-12T04:40:14;99828.59;;;5.36;100.00
54910;BME280;63189;51.240;9.964;2023-02-12T04:42:43;99826.84;;;5.35;100.00
54910;BME280;63189;51.240;9.964;2023-02-12T04:45:10;99831.97;;;5.32;100.00
54910;BME280;63189;51.240;9.964;2023-02-12T04:47:36;99844.94;;;5.35;100.00
54910;BME280;63189;51.240;9.964;2023-02-12T04:50:02;99829.28;;;5.29;100.00
54910;BME280;63189;51.240;9.964;2023-02-12T04:52:28;99817.88;;;5.19;100.00
54910;BME280;63189;51.240;9.964;2023-02-12T04:54:53;99839.72;;;5.32;100.00
54910;BME280;63189;51.240;9.964;2023-02-12T04:57:18;99817.00;;;5.19;100.00
54910;BME280;63189;51.240;9.964;2023-02-12T04:59:43;99801.25;;;5.07;100.00
54910;BME280;63189;51.240;9.964;2023-02-12T05:02:09;99840.50;;;5.30;100.00
54910;BME280;63189;51.240;9.964;2023-02-12T05:04:34;99804.91;;;5.18;100.00
54910;BME280;63189;51.240;9.964;2023-02-12T05:06:59;99821.41;;;5.21;100.00
54910;BME280;63189;51.240;9.964;2023-02-12T05:09:25;99849.34;;;5.41;100.00
54910;BME280;63189;51.240;9.964;2023-02-12T05:11:50;99824.97;;;5.30;100.00
54910;BME280;63189;51.240;9.964;2023-02-12T05:14:16;99831.97;;;5.34;100.00
54910;BME280;63189;51.240;9.964;2023-02-12T05:16:41;99790.19;;;5.14;100.00
54910;BME280;63189;51.240;9.964;2023-02-12T05:19:07;99805.81;;;5.20;100.00
54910;BME280;63189;51.240;9.964;2023-02-12T05:21:34;99790.97;;;5.10;100.00
54910;BME280;63189;51.240;9.964;2023-02-12T05:24:00;99849.44;;;5.44;100.00
54910;BME280;63189;51.240;9.964;2023-02-12T05:26:26;99844.25;;;5.44;100.00
54910;BME280;63189;51.240;9.964;2023-02-12T05:28:52;99839.00;;;5.41;100.00
54910;BME280;63189;51.240;9.964;2023-02-12T05:31:18;99793.75;;;5.20;100.00
54910;BME280;63189;51.240;9.964;2023-02-12T05:33:46;99825.97;;;5.35;100.00
54910;BME280;63189;51.240;9.964;2023-02-12T05:36:15;99845.97;;;5.43;100.00
54910;BME280;63189;51.240;9.964;2023-02-12T05:38:40;99819.78;;;5.28;100.00
54910;BME280;63189;51.240;9.964;2023-02-12T05:41:09;99845.97;;;5.43;100.00
54910;BME280;63189;51.240;9.964;2023-02-12T05:43:34;99811.06;;;5.23;100.00
54910;BME280;63189;51.240;9.964;2023-02-12T05:46:01;99845.97;;;5.43;100.00
54910;BME280;63189;51.240;9.964;2023-02-12T05:48:28;99843.41;;;5.43;100.00
54910;BME280;63189;51.240;9.964;2023-02-12T05:50:54;99835.44;;;5.34;100.00
54910;BME280;63189;51.240;9.964;2023-02-12T05:53:20;99797.19;;;5.19;100.00
54910;BME280;63189;51.240;9.964;2023-02-12T05:55:45;99852.06;;;5.45;100.00
54910;BME280;63189;51.240;9.964;2023-02-12T05:58:10;99837.25;;;5.38;100.00
54910;BME280;63189;51.240;9.964;2023-02-12T06:00:36;99843.31;;;5.40;100.00
54910;BME280;63189;51.240;9.964;2023-02-12T06:03:01;99820.53;;;5.21;100.00
54910;BME280;63189;51.240;9.964;2023-02-12T06:05:26;99850.31;;;5.44;100.00
54910;BME280;63189;51.240;9.964;2023-02-12T06:07:52;99851.91;;;5.39;100.00
54910;BME280;63189;51.240;9.964;2023-02-12T06:10:17;99846.72;;;5.38;100.00
54910;BME280;63189;51.240;9.964;2023-02-12T06:12:43;99823.03;;;5.19;100.00
54910;BME280;63189;51.240;9.964;2023-02-12T06:15:08;99861.47;;;5.42;100.00
54910;BME280;63189;51.240;9.964;2023-02-12T06:17:33;99836.16;;;5.27;100.00
54910;BME280;63189;51.240;9.964;2023-02-12T06:19:59;99863.16;;;5.41;100.00
54910;BME280;63189;51.240;9.964;2023-02-12T06:22:24;99873.66;;;5.47;100.00
54910;BME280;63189;51.240;9.964;2023-02-12T06:24:50;99818.69;;;5.17;100.00
54910;BME280;63189;51.240;9.964;2023-02-12T06:27:15;99868.47;;;5.47;100.00
54910;BME280;63189;51.240;9.964;2023-02-12T06:29:40;99872.75;;;5.45;100.00
54910;BME280;63189;51.240;9.964;2023-02-12T06:32:07;99871.00;;;5.44;100.00
54910;BME280;63189;51.240;9.964;2023-02-12T06:34:32;99885.75;;;5.48;100.00
54910;BME280;63189;51.240;9.964;2023-02-12T06:36:58;99877.09;;;5.48;100.00
54910;BME280;63189;51.240;9.964;2023-02-12T06:39:23;99874.44;;;5.43;100.00
54910;BME280;63189;51.240;9.964;2023-02-12T06:41:49;99887.44;;;5.48;100.00
54910;BME280;63189;51.240;9.964;2023-02-12T06:44:14;99884.00;;;5.47;100.00
54910;BME280;63189;51.240;9.964;2023-02-12T06:46:39;99847.16;;;5.18;100.00
54910;BME280;63189;51.240;9.964;2023-02-12T06:49:05;99895.31;;;5.53;100.00
54910;BME280;63189;51.240;9.964;2023-02-12T06:51:30;99891.81;;;5.50;100.00
54910;BME280;63189;51.240;9.964;2023-02-12T06:53:56;99906.53;;;5.53;100.00
54910;BME280;63189;51.240;9.964;2023-02-12T06:56:23;99916.84;;;5.51;100.00
54910;BME280;63189;51.240;9.964;2023-02-12T06:58:56;99898.59;;;5.44;100.00
54910;BME280;63189;51.240;9.964;2023-02-12T07:01:25;99894.06;;;5.34;100.00
54910;BME280;63189;51.240;9.964;2023-02-12T07:03:53;99918.53;;;5.49;100.00
54910;BME280;63189;51.240;9.964;2023-02-12T07:06:20;99893.19;;;5.33;100.00
54910;BME280;63189;51.240;9.964;2023-02-12T07:08:45;99922.00;;;5.51;100.00
54910;BME280;63189;51.240;9.964;2023-02-12T07:11:11;99922.88;;;5.52;100.00
54910;BME280;63189;51.240;9.964;2023-02-12T07:13:36;99893.25;;;5.36;100.00
54910;BME280;63189;51.240;9.964;2023-02-12T07:16:07;99879.16;;;5.22;100.00
54910;BME280;63189;51.240;9.964;2023-02-12T07:18:33;99908.94;;;5.44;100.00
54910;BME280;63189;51.240;9.964;2023-02-12T07:20:59;99889.59;;;5.27;100.00
54910;BME280;63189;51.240;9.964;2023-02-12T07:23:25;99918.41;;;5.43;100.00
54910;BME280;63189;51.240;9.964;2023-02-12T07:25:57;99927.97;;;5.47;100.00
54910;BME280;63189;51.240;9.964;2023-02-12T07:28:23;99918.31;;;5.40;100.00
54910;BME280;63189;51.240;9.964;2023-02-12T07:30:49;99902.59;;;5.31;100.00
54910;BME280;63189;51.240;9.964;2023-02-12T07:33:14;99893.03;;;5.27;100.00
54910;BME280;63189;51.240;9.964;2023-02-12T07:35:39;99927.16;;;5.50;100.00
54910;BME280;63189;51.240;9.964;2023-02-12T07:38:05;99893.03;;;5.27;100.00
54910;BME280;63189;51.240;9.964;2023-02-12T07:40:30;99927.81;;;5.41;100.00
54910;BME280;63189;51.240;9.964;2023-02-12T07:42:55;99936.59;;;5.48;100.00
54910;BME280;63189;51.240;9.964;2023-02-12T07:45:21;99946.09;;;5.47;100.00
54910;BME280;63189;51.240;9.964;2023-02-12T07:47:47;99923.38;;;5.34;100.00
54910;BME280;63189;51.240;9.964;2023-02-12T07:50:12;99944.34;;;5.46;100.00
54910;BME280;63189;51.240;9.964;2023-02-12T07:52:37;99939.88;;;5.41;100.00
54910;BME280;63189;51.240;9.964;2023-02-12T07:55:03;99912.88;;;5.28;100.00
54910;BME280;63189;51.240;9.964;2023-02-12T07:57:28;99919.78;;;5.28;100.00
54910;BME280;63189;51.240;9.964;2023-02-12T07:59:54;99953.78;;;5.44;100.00
54910;BME280;63189;51.240;9.964;2023-02-12T08:02:28;99947.59;;;5.38;100.00
54910;BME280;63189;51.240;9.964;2023-02-12T08:04:55;99914.31;;;5.14;100.00
54910;BME280;63189;51.240;9.964;2023-02-12T08:07:20;99937.22;;;5.36;100.00
54910;BME280;63189;51.240;9.964;2023-02-12T08:09:45;99934.41;;;5.27;100.00
54910;BME280;63189;51.240;9.964;2023-02-12T08:12:11;99964.19;;;5.47;100.00
54910;BME280;63189;51.240;9.964;2023-02-12T08:14:36;99939.75;;;5.33;100.00
54910;BME280;63189;51.240;9.964;2023-02-12T08:17:02;99966.78;;;5.47;100.00
54910;BME280;63189;51.240;9.964;2023-02-12T08:19:27;99964.19;;;5.47;100.00
54910;BME280;63189;51.240;9.964;2023-02-12T08:21:55;99956.34;;;5.43;100.00
54910;BME280;63189;51.240;9.964;2023-02-12T08:24:21;99917.88;;;5.20;100.00
54910;BME280;63189;51.240;9.964;2023-02-12T08:26:47;99971.09;;;5.48;100.00
54910;BME280;63189;51.240;9.964;2023-02-12T08:29:18;99972.00;;;5.50;100.00
54910;BME280;63189;51.240;9.964;2023-02-12T08:31:55;99965.97;;;5.50;100.00
54910;BME280;63189;51.240;9.964;2023-02-12T08:34:23;99930.09;;;5.26;100.00
54910;BME280;63189;51.240;9.964;2023-02-12T08:36:50;99960.88;;;5.53;100.00
54910;BME280;63189;51.240;9.964;2023-02-12T08:39:18;99924.22;;;5.33;100.00
54910;BME280;63189;51.240;9.964;2023-02-12T08:41:44;99947.19;;;5.59;100.00
54910;BME280;63189;51.240;9.964;2023-02-12T08:44:10;99953.28;;;5.62;100.00
54910;BME280;63189;51.240;9.964;2023-02-12T08:46:38;99926.22;;;5.46;100.00
54910;BME280;63189;51.240;9.964;2023-02-12T08:49:11;99898.34;;;5.33;100.00
54910;BME280;63189;51.240;9.964;2023-02-12T08:51:42;99957.78;;;5.71;100.00
54910;BME280;63189;51.240;9.964;2023-02-12T08:54:11;99950.00;;;5.69;100.00
54910;BME280;63189;51.240;9.964;2023-02-12T08:56:37;99957.94;;;5.77;100.00
54910;BME280;63189;51.240;9.964;2023-02-12T08:59:04;99966.63;;;5.80;100.00
54910;BME280;63189;51.240;9.964;2023-02-12T09:01:35;99937.06;;;5.69;100.00
54910;BME280;63189;51.240;9.964;2023-02-12T09:04:02;99959.91;;;5.89;100.00
54910;BME280;63189;51.240;9.964;2023-02-12T09:06:31;99941.59;;;5.81;100.00
54910;BME280;63189;51.240;9.964;2023-02-12T09:09:01;99964.53;;;6.03;100.00
54910;BME280;63189;51.240;9.964;2023-02-12T09:11:27;99961.19;;;6.09;100.00
54910;BME280;63189;51.240;9.964;2023-02-12T09:14:02;99924.75;;;6.00;100.00
54910;BME280;63189;51.240;9.964;2023-02-12T09:16:29;99968.47;;;6.28;100.00
54910;BME280;63189;51.240;9.964;2023-02-12T09:18:55;99967.69;;;6.32;100.00
54910;BME280;63189;51.240;9.964;2023-02-12T09:21:21;99964.13;;;6.26;100.00
54910;BME280;63189;51.240;9.964;2023-02-12T09:23:47;99972.03;;;6.33;100.00
54910;BME280;63189;51.240;9.964;2023-02-12T09:26:16;99974.59;;;6.32;100.00
54910;BME280;63189;51.240;9.964;2023-02-12T09:28:45;99952.75;;;6.18;100.00
54910;BME280;63189;51.240;9.964;2023-02-12T09:31:12;99965.84;;;6.25;100.00
54910;BME280;63189;51.240;9.964;2023-02-12T09:33:39;99974.75;;;6.41;100.00
54910;BME280;63189;51.240;9.964;2023-02-12T09:36:14;99938.97;;;6.20;100.00
54910;BME280;63189;51.240;9.964;2023-02-12T09:38:40;99948.69;;;6.32;100.00
54910;BME280;63189;51.240;9.964;2023-02-12T09:44:23;99974.00;;;6.47;100.00
54910;BME280;63189;51.240;9.964;2023-02-12T09:52:19;99936.34;;;6.19;100.00
54910;BME280;63189;51.240;9.964;2023-02-12T09:54:48;99976.59;;;6.47;100.00
54910;BME280;63189;51.240;9.964;2023-02-12T09:57:22;99983.56;;;6.49;100.00
54910;BME280;63189;51.240;9.964;2023-02-12T09:59:56;99947.06;;;6.37;100.00
54910;BME280;63189;51.240;9.964;2023-02-12T10:02:22;99988.16;;;6.65;100.00
54910;BME280;63189;51.240;9.964;2023-02-12T10:04:50;99983.91;;;6.69;100.00
54910;BME280;63189;51.240;9.964;2023-02-12T10:13:03;99944.69;;;6.49;100.00
54910;BME280;63189;51.240;9.964;2023-02-12T10:15:34;100001.34;;;6.78;100.00
54910;BME280;63189;51.240;9.964;2023-02-12T10:21:13;100002.16;;;6.75;100.00
54910;BME280;63189;51.240;9.964;2023-02-12T10:26:18;99984.78;;;6.68;100.00
54910;BME280;63189;51.240;9.964;2023-02-12T10:28:45;99994.41;;;6.77;100.00
54910;BME280;63189;51.240;9.964;2023-02-12T10:31:31;99992.59;;;6.73;100.00
54910;BME280;63189;51.240;9.964;2023-02-12T10:33:58;99980.44;;;6.69;100.00
54910;BME280;63189;51.240;9.964;2023-02-12T10:36:44;99989.16;;;6.74;100.00
54910;BME280;63189;51.240;9.964;2023-02-12T10:39:20;99997.09;;;6.81;100.00
54910;BME280;63189;51.240;9.964;2023-02-12T10:41:57;100002.28;;;6.83;100.00
54910;BME280;63189;51.240;9.964;2023-02-12T10:44:26;99997.84;;;6.77;100.00
54910;BME280;63189;51.240;9.964;2023-02-12T10:53:25;100010.22;;;6.92;100.00
54910;BME280;63189;51.240;9.964;2023-02-12T10:56:14;99941.38;;;6.58;100.00
54910;BME280;63189;51.240;9.964;2023-02-12T11:01:28;99980.69;;;6.82;100.00
54910;BME280;63189;51.240;9.964;2023-02-12T11:03:59;100000.78;;;6.97;100.00
54910;BME280;63189;51.240;9.964;2023-02-12T11:07:11;99970.25;;;6.78;100.00
54910;BME280;63189;51.240;9.964;2023-02-12T11:12:38;99996.44;;;6.94;100.00
54910;BME280;63189;51.240;9.964;2023-02-12T11:15:14;99997.41;;;7.00;100.00
54910;BME280;63189;51.240;9.964;2023-02-12T11:18:26;99968.63;;;6.86;100.00
54910;BME280;63189;51.240;9.964;2023-02-12T11:20:49;99953.91;;;6.83;100.00
54910;BME280;63189;51.240;9.964;2023-02-12T11:23:24;99995.75;;;7.06;100.00
54910;BME280;63189;51.240;9.964;2023-02-12T11:28:22;99991.47;;;7.08;100.00
54910;BME280;63189;51.240;9.964;2023-02-12T11:30:59;99925.09;;;6.66;100.00
54910;BME280;63189;51.240;9.964;2023-02-12T11:33:30;99986.25;;;7.05;100.00
54910;BME280;63189;51.240;9.964;2023-02-12T11:36:18;99991.47;;;7.08;100.00
54910;BME280;63189;51.240;9.964;2023-02-12T11:38:53;99963.56;;;6.93;100.00
54910;BME280;63189;51.240;9.964;2023-02-12T11:41:23;99980.19;;;7.06;100.00
54910;BME280;63189;51.240;9.964;2023-02-12T11:44:16;99981.06;;;7.05;100.00
54910;BME280;63189;51.240;9.964;2023-02-12T11:47:12;99968.75;;;6.92;100.00
54910;BME280;63189;51.240;9.964;2023-02-12T11:59:34;99977.53;;;7.00;100.00
54910;BME280;63189;51.240;9.964;2023-02-12T12:02:22;99974.13;;;7.04;100.00
54910;BME280;63189;51.240;9.964;2023-02-12T12:04:51;99983.66;;;7.07;100.00
54910;BME280;63189;51.240;9.964;2023-02-12T12:07:22;99977.59;;;7.06;100.00
54910;BME280;63189;51.240;9.964;2023-02-12T12:10:00;99979.34;;;7.07;100.00
54910;BME280;63189;51.240;9.964;2023-02-12T12:12:37;99975.88;;;7.05;100.00
54910;BME280;63189;51.240;9.964;2023-02-12T12:24:16;99981.88;;;7.01;100.00
54910;BME280;63189;51.240;9.964;2023-02-12T12:26:49;99981.84;;;7.00;100.00
54910;BME280;63189;51.240;9.964;2023-02-12T12:29:50;99981.84;;;7.00;100.00
54910;BME280;63189;51.240;9.964;2023-02-12T12:32:18;99974.88;;;6.97;100.00
54910;BME280;63189;51.240;9.964;2023-02-12T12:34:46;99985.22;;;6.97;100.00
54910;BME280;63189;51.240;9.964;2023-02-12T12:40:10;99980.91;;;6.96;100.00
54910;BME280;63189;51.240;9.964;2023-02-12T12:43:23;99974.00;;;6.97;100.00
54910;BME280;63189;51.240;9.964;2023-02-12T12:46:14;99968.78;;;6.95;100.00
54910;BME280;63189;51.240;9.964;2023-02-12T12:48:58;99959.22;;;6.91;100.00
54910;BME280;63189;51.240;9.964;2023-02-12T12:51:35;99967.03;;;6.94;100.00
54910;BME280;63189;51.240;9.964;2023-02-12T12:57:14;99966.16;;;6.93;100.00
54910;BME280;63189;51.240;9.964;2023-02-12T12:59:57;99962.72;;;6.93;100.00
54910;BME280;63189;51.240;9.964;2023-02-12T13:05:53;99965.28;;;6.91;100.00
54910;BME280;63189;51.240;9.964;2023-02-12T13:11:25;99956.63;;;6.91;100.00
54910;BME280;63189;51.240;9.964;2023-02-12T13:14:06;99950.56;;;6.90;100.00
54910;BME280;63189;51.240;9.964;2023-02-12T13:16:41;99943.66;;;6.89;100.00
54910;BME280;63189;51.240;9.964;2023-02-12T13:19:31;99946.22;;;6.88;100.00
54910;BME280;63189;51.240;9.964;2023-02-12T13:22:06;99936.66;;;6.85;100.00
54910;BME280;63189;51.240;9.964;2023-02-12T13:27:27;99947.91;;;6.87;100.00
54910;BME280;63189;51.240;9.964;2023-02-12T13:30:04;99954.88;;;6.90;100.00
54910;BME280;63189;51.240;9.964;2023-02-12T13:32:34;99946.22;;;6.88;100.00
54910;BME280;63189;51.240;9.964;2023-02-12T13:35:04;99944.44;;;6.85;100.00
54910;BME280;63189;51.240;9.964;2023-02-12T13:37:44;99947.88;;;6.86;100.00
54910;BME280;63189;51.240;9.964;2023-02-12T13:40:24;99946.09;;;6.82;100.00
54910;BME280;63189;51.240;9.964;2023-02-12T13:49:04;99942.53;;;6.77;100.00
54910;BME280;63189;51.240;9.964;2023-02-12T13:51:57;99950.38;;;6.78;100.00
54910;BME280;63189;51.240;9.964;2023-02-12T13:54:35;99947.72;;;6.77;100.00
54910;BME280;63189;51.240;9.964;2023-02-12T13:57:08;99950.31;;;6.75;100.00
54910;BME280;63189;51.240;9.964;2023-02-12T13:59:38;99939.91;;;6.72;100.00
54910;BME280;63189;51.240;9.964;2023-02-12T14:06:59;99939.06;;;6.75;100.00
54910;BME280;63189;51.240;9.964;2023-02-12T14:12:03;99935.53;;;6.70;100.00
54910;BME280;63189;51.240;9.964;2023-02-12T14:15:07;99938.16;;;6.71;100.00
54910;BME280;63189;51.240;9.964;2023-02-12T14:20:22;99945.09;;;6.74;100.00
54910;BME280;63189;51.240;9.964;2023-02-12T14:30:28;99947.66;;;6.71;100.00
54910;BME280;63189;51.240;9.964;2023-02-12T14:35:39;99947.66;;;6.71;100.00
54910;BME280;63189;51.240;9.964;2023-02-12T14:40:38;99940.75;;;6.73;100.00
54910;BME280;63189;51.240;9.964;2023-02-12T14:43:28;99945.03;;;6.69;100.00
54910;BME280;63189;51.240;9.964;2023-02-12T14:49:00;99943.19;;;6.63;100.00
54910;BME280;63189;51.240;9.964;2023-02-12T14:51:38;99937.97;;;6.60;100.00
54910;BME280;63189;51.240;9.964;2023-02-12T14:54:13;99943.94;;;6.56;100.00
54910;BME280;63189;51.240;9.964;2023-02-12T14:56:46;99936.94;;;6.51;100.00
54910;BME280;63189;51.240;9.964;2023-02-12T14:59:18;99937.69;;;6.45;100.00
54910;BME280;63189;51.240;9.964;2023-02-12T15:01:46;99941.16;;;6.46;100.00
54910;BME280;63189;51.240;9.964;2023-02-12T15:04:24;99942.06;;;6.46;100.00
54910;BME280;63189;51.240;9.964;2023-02-12T15:06:58;99942.88;;;6.45;100.00
54910;BME280;63189;51.240;9.964;2023-02-12T15:09:32;99943.75;;;6.46;100.00
54910;BME280;63189;51.240;9.964;2023-02-12T15:12:14;99942.06;;;6.46;100.00
54910;BME280;63189;51.240;9.964;2023-02-12T15:14:47;99939.47;;;6.48;100.00
54910;BME280;63189;51.240;9.964;2023-02-12T15:17:20;99949.03;;;6.50;100.00
54910;BME280;63189;51.240;9.964;2023-02-12T15:20:02;99944.66;;;6.48;100.00
54910;BME280;63189;51.240;9.964;2023-02-12T15:22:35;99945.50;;;6.47;100.00
54910;BME280;63189;51.240;9.964;2023-02-12T15:25:23;99944.66;;;6.48;100.00
54910;BME280;63189;51.240;9.964;2023-02-12T15:27:53;99952.47;;;6.49;100.00
54910;BME280;63189;51.240;9.964;2023-02-12T15:30:33;99947.28;;;6.49;100.00
54910;BME280;63189;51.240;9.964;2023-02-12T15:33:04;99943.84;;;6.50;100.00